ADDS METAR Data INFO
IDs: Format: Raw Decoded Include TAF

Data at: 0037 UTC 21 Jan 2018

METAR for:KLEX (Lexington/Blue Grass, KY, US)
Text:KLEX 210026Z 21010KT 10SM OVC013 09/06 A3015 RMK AO2 T00890061
Temperature: 8.9°C ( 48°F)
Dewpoint: 6.1°C ( 43°F) [RH = 83%]
Pressure (altimeter):30.15 inches Hg (1021.1 mb)
Winds:from the SSW (210 degrees) at 12 MPH (10 knots; 5.1 m/s)
Visibility:10 or more sm (16+ km)
Ceiling:1300 feet AGL
Clouds: overcast cloud deck at 1300 feet AGL